<?xml version="1.0" encoding="UTF-8" standalone="no" ?>
<gpx xmlns="http://www.topografix.com/GPX/1/1" xmlns:xsi="http://www.w3.org/2001/XMLSchema-instance" xsi:schemaLocation="http://www.topografix.com/GPX/1/1 http://www.topografix.com/GPX/1/1/gpx.xsd" version="1.1" creator="VisuGPX - https://www.visugpx.com">
  <metadata>
    <name>FoussayPaire_Autour_19-22km</name>
    <desc><![CDATA[gnerando idor;8986892_8986940_8986962_9129062_9131846]]></desc>
  </metadata>
  <trk>
    <name><![CDATA[FoussaisP_NordSud_21.9km-8986892]]></name>
    <extensions>
      <line xmlns="http://www.topografix.com/GPX/gpx_style/0/2">
        <color>0000FF</color>
        <width>4</width>
      </line>
    </extensions>
    <trkseg>
      <trkpt lat="46.52854" lon="-0.68194">
        <ele>81</ele>
        <time>2023-11-01T17:32:50Z</time>
      </trkpt>
      <trkpt lat="46.53102" lon="-0.68206">
        <ele>83</ele>
        <time>2023-11-01T17:38:21Z</time>
      </trkpt>
      <trkpt lat="46.53301" lon="-0.68771">
        <ele>96</ele>
        <time>2023-11-01T17:48:04Z</time>
      </trkpt>
      <trkpt lat="46.53241" lon="-0.68822">
        <ele>96</ele>
        <time>2023-11-01T17:49:37Z</time>
      </trkpt>
      <trkpt lat="46.53306" lon="-0.69211">
        <ele>92</ele>
        <time>2023-11-01T17:55:44Z</time>
      </trkpt>
      <trkpt lat="46.53475" lon="-0.69132">
        <ele>91</ele>
        <time>2023-11-01T17:59:41Z</time>
      </trkpt>
      <trkpt lat="46.53574" lon="-0.69377">
        <ele>88</ele>
        <time>2023-11-01T18:04:02Z</time>
      </trkpt>
      <trkpt lat="46.53653" lon="-0.69478">
        <ele>92</ele>
        <time>2023-11-01T18:06:22Z</time>
      </trkpt>
      <trkpt lat="46.53753" lon="-0.69825">
        <ele>85</ele>
        <time>2023-11-01T18:12:08Z</time>
      </trkpt>
      <trkpt lat="46.53847" lon="-0.69717">
        <ele>86</ele>
        <time>2023-11-01T18:14:47Z</time>
      </trkpt>
      <trkpt lat="46.53922" lon="-0.69868">
        <ele>81</ele>
        <time>2023-11-01T18:17:38Z</time>
      </trkpt>
      <trkpt lat="46.53976" lon="-0.69854">
        <ele>82</ele>
        <time>2023-11-01T18:18:52Z</time>
      </trkpt>
      <trkpt lat="46.54165" lon="-0.69984">
        <ele>88</ele>
        <time>2023-11-01T18:23:31Z</time>
      </trkpt>
      <trkpt lat="46.54314" lon="-0.69962">
        <ele>92</ele>
        <time>2023-11-01T18:26:51Z</time>
      </trkpt>
      <trkpt lat="46.54358" lon="-0.70056">
        <ele>93</ele>
        <time>2023-11-01T18:28:35Z</time>
      </trkpt>
      <trkpt lat="46.54403" lon="-0.70027">
        <ele>91</ele>
        <time>2023-11-01T18:29:41Z</time>
      </trkpt>
      <trkpt lat="46.54433" lon="-0.70142">
        <ele>90</ele>
        <time>2023-11-01T18:31:33Z</time>
      </trkpt>
      <trkpt lat="46.54547" lon="-0.70092">
        <ele>90</ele>
        <time>2023-11-01T18:34:12Z</time>
      </trkpt>
      <trkpt lat="46.5484" lon="-0.69774">
        <ele>96</ele>
        <time>2023-11-01T18:42:20Z</time>
      </trkpt>
      <trkpt lat="46.54969" lon="-0.69449">
        <ele>101</ele>
        <time>2023-11-01T18:48:05Z</time>
      </trkpt>
      <trkpt lat="46.55143" lon="-0.69471">
        <ele>102</ele>
        <time>2023-11-01T18:51:58Z</time>
      </trkpt>
      <trkpt lat="46.55282" lon="-0.69565">
        <ele>103</ele>
        <time>2023-11-01T18:55:22Z</time>
      </trkpt>
      <trkpt lat="46.55366" lon="-0.69312">
        <ele>106</ele>
        <time>2023-11-01T18:59:40Z</time>
      </trkpt>
      <trkpt lat="46.55366" lon="-0.69182">
        <ele>106</ele>
        <time>2023-11-01T19:01:39Z</time>
      </trkpt>
      <trkpt lat="46.5557" lon="-0.6893">
        <ele>109</ele>
        <time>2023-11-01T19:07:37Z</time>
      </trkpt>
      <trkpt lat="46.55694" lon="-0.69002">
        <ele>106</ele>
        <time>2023-11-01T19:10:35Z</time>
      </trkpt>
      <trkpt lat="46.55669" lon="-0.6924">
        <ele>101</ele>
        <time>2023-11-01T19:14:16Z</time>
      </trkpt>
      <trkpt lat="46.55723" lon="-0.69536">
        <ele>113</ele>
        <time>2023-11-01T19:18:57Z</time>
      </trkpt>
      <trkpt lat="46.55644" lon="-0.69601">
        <ele>108</ele>
        <time>2023-11-01T19:20:58Z</time>
      </trkpt>
      <trkpt lat="46.55589" lon="-0.70157">
        <ele>107</ele>
        <time>2023-11-01T19:29:33Z</time>
      </trkpt>
      <trkpt lat="46.5549" lon="-0.70496">
        <ele>103</ele>
        <time>2023-11-01T19:35:11Z</time>
      </trkpt>
      <trkpt lat="46.55247" lon="-0.70741">
        <ele>94</ele>
        <time>2023-11-01T19:41:46Z</time>
      </trkpt>
      <trkpt lat="46.55197" lon="-0.70684">
        <ele>93</ele>
        <time>2023-11-01T19:43:11Z</time>
      </trkpt>
      <trkpt lat="46.55152" lon="-0.70721">
        <ele>91</ele>
        <time>2023-11-01T19:44:20Z</time>
      </trkpt>
      <trkpt lat="46.5512" lon="-0.70679">
        <ele>93</ele>
        <time>2023-11-01T19:45:17Z</time>
      </trkpt>
      <trkpt lat="46.55019" lon="-0.70885">
        <ele>88</ele>
        <time>2023-11-01T19:49:09Z</time>
      </trkpt>
      <trkpt lat="46.5483" lon="-0.7091">
        <ele>89</ele>
        <time>2023-11-01T19:53:23Z</time>
      </trkpt>
      <trkpt lat="46.54626" lon="-0.70964">
        <ele>90</ele>
        <time>2023-11-01T19:57:59Z</time>
      </trkpt>
      <trkpt lat="46.5455" lon="-0.71047">
        <ele>90</ele>
        <time>2023-11-01T20:00:06Z</time>
      </trkpt>
      <trkpt lat="46.5447" lon="-0.70877">
        <ele>92</ele>
        <time>2023-11-01T20:03:15Z</time>
      </trkpt>
      <trkpt lat="46.54428" lon="-0.70921">
        <ele>91</ele>
        <time>2023-11-01T20:04:24Z</time>
      </trkpt>
      <trkpt lat="46.54334" lon="-0.70816">
        <ele>88</ele>
        <time>2023-11-01T20:07:02Z</time>
      </trkpt>
      <trkpt lat="46.54262" lon="-0.70524">
        <ele>92</ele>
        <time>2023-11-01T20:11:47Z</time>
      </trkpt>
      <trkpt lat="46.5403" lon="-0.70589">
        <ele>89</ele>
        <time>2023-11-01T20:17:02Z</time>
      </trkpt>
      <trkpt lat="46.5392" lon="-0.70567">
        <ele>88</ele>
        <time>2023-11-01T20:19:31Z</time>
      </trkpt>
      <trkpt lat="46.53782" lon="-0.70657">
        <ele>86</ele>
        <time>2023-11-01T20:22:52Z</time>
      </trkpt>
      <trkpt lat="46.53731" lon="-0.70722">
        <ele>84</ele>
        <time>2023-11-01T20:24:23Z</time>
      </trkpt>
      <trkpt lat="46.53669" lon="-0.70777">
        <ele>80</ele>
        <time>2023-11-01T20:26:00Z</time>
      </trkpt>
      <trkpt lat="46.53593" lon="-0.70726">
        <ele>81</ele>
        <time>2023-11-01T20:27:52Z</time>
      </trkpt>
      <trkpt lat="46.5356" lon="-0.70623">
        <ele>82</ele>
        <time>2023-11-01T20:29:36Z</time>
      </trkpt>
      <trkpt lat="46.53318" lon="-0.70447">
        <ele>73</ele>
        <time>2023-11-01T20:35:37Z</time>
      </trkpt>
      <trkpt lat="46.5328" lon="-0.7025">
        <ele>75</ele>
        <time>2023-11-01T20:38:45Z</time>
      </trkpt>
      <trkpt lat="46.53153" lon="-0.70232">
        <ele>77</ele>
        <time>2023-11-01T20:41:35Z</time>
      </trkpt>
      <trkpt lat="46.53114" lon="-0.70168">
        <ele>79</ele>
        <time>2023-11-01T20:42:54Z</time>
      </trkpt>
      <trkpt lat="46.53017" lon="-0.70237">
        <ele>83</ele>
        <time>2023-11-01T20:45:18Z</time>
      </trkpt>
      <trkpt lat="46.52896" lon="-0.70275">
        <ele>87</ele>
        <time>2023-11-01T20:48:03Z</time>
      </trkpt>
      <trkpt lat="46.52751" lon="-0.69773">
        <ele>89</ele>
        <time>2023-11-01T20:56:23Z</time>
      </trkpt>
      <trkpt lat="46.52778" lon="-0.697">
        <ele>89</ele>
        <time>2023-11-01T20:57:39Z</time>
      </trkpt>
      <trkpt lat="46.52877" lon="-0.69686">
        <ele>90</ele>
        <time>2023-11-01T20:59:52Z</time>
      </trkpt>
      <trkpt lat="46.529" lon="-0.69578">
        <ele>89</ele>
        <time>2023-11-01T21:01:35Z</time>
      </trkpt>
      <trkpt lat="46.52939" lon="-0.69506">
        <ele>90</ele>
        <time>2023-11-01T21:03:00Z</time>
      </trkpt>
      <trkpt lat="46.52967" lon="-0.69273">
        <ele>91</ele>
        <time>2023-11-01T21:06:37Z</time>
      </trkpt>
      <trkpt lat="46.52869" lon="-0.68831">
        <ele>92</ele>
        <time>2023-11-01T21:13:43Z</time>
      </trkpt>
      <trkpt lat="46.52876" lon="-0.68597">
        <ele>92</ele>
        <time>2023-11-01T21:17:18Z</time>
      </trkpt>
      <trkpt lat="46.52842" lon="-0.68449">
        <ele>88</ele>
        <time>2023-11-01T21:19:41Z</time>
      </trkpt>
      <trkpt lat="46.5272" lon="-0.68467">
        <ele>86</ele>
        <time>2023-11-01T21:22:25Z</time>
      </trkpt>
      <trkpt lat="46.52425" lon="-0.68542">
        <ele>88</ele>
        <time>2023-11-01T21:29:05Z</time>
      </trkpt>
      <trkpt lat="46.5241" lon="-0.68604">
        <ele>88</ele>
        <time>2023-11-01T21:30:05Z</time>
      </trkpt>
      <trkpt lat="46.52077" lon="-0.68838">
        <ele>87</ele>
        <time>2023-11-01T21:38:19Z</time>
      </trkpt>
      <trkpt lat="46.51521" lon="-0.69246">
        <ele>83</ele>
        <time>2023-11-01T21:52:10Z</time>
      </trkpt>
      <trkpt lat="46.51491" lon="-0.69062">
        <ele>82</ele>
        <time>2023-11-01T21:55:03Z</time>
      </trkpt>
      <trkpt lat="46.51364" lon="-0.69069">
        <ele>83</ele>
        <time>2023-11-01T21:57:53Z</time>
      </trkpt>
      <trkpt lat="46.51205" lon="-0.69022">
        <ele>87</ele>
        <time>2023-11-01T22:01:30Z</time>
      </trkpt>
      <trkpt lat="46.5081" lon="-0.69116">
        <ele>85</ele>
        <time>2023-11-01T22:10:24Z</time>
      </trkpt>
      <trkpt lat="46.50689" lon="-0.69098">
        <ele>82</ele>
        <time>2023-11-01T22:13:06Z</time>
      </trkpt>
      <trkpt lat="46.50433" lon="-0.69087">
        <ele>70</ele>
        <time>2023-11-01T22:18:48Z</time>
      </trkpt>
      <trkpt lat="46.50212" lon="-0.69185">
        <ele>70</ele>
        <time>2023-11-01T22:23:56Z</time>
      </trkpt>
      <trkpt lat="46.50073" lon="-0.68763">
        <ele>59</ele>
        <time>2023-11-01T22:31:06Z</time>
      </trkpt>
      <trkpt lat="46.50008" lon="-0.68723">
        <ele>55</ele>
        <time>2023-11-01T22:32:40Z</time>
      </trkpt>
      <trkpt lat="46.50063" lon="-0.68622">
        <ele>55</ele>
        <time>2023-11-01T22:34:38Z</time>
      </trkpt>
      <trkpt lat="46.50127" lon="-0.68669">
        <ele>59</ele>
        <time>2023-11-01T22:36:14Z</time>
      </trkpt>
      <trkpt lat="46.50194" lon="-0.68416">
        <ele>61</ele>
        <time>2023-11-01T22:40:23Z</time>
      </trkpt>
      <trkpt lat="46.50197" lon="-0.6834">
        <ele>61</ele>
        <time>2023-11-01T22:41:33Z</time>
      </trkpt>
      <trkpt lat="46.50244" lon="-0.68279">
        <ele>61</ele>
        <time>2023-11-01T22:42:57Z</time>
      </trkpt>
      <trkpt lat="46.50256" lon="-0.68019">
        <ele>61</ele>
        <time>2023-11-01T22:46:56Z</time>
      </trkpt>
      <trkpt lat="46.50174" lon="-0.6785">
        <ele>58</ele>
        <time>2023-11-01T22:50:06Z</time>
      </trkpt>
      <trkpt lat="46.50311" lon="-0.67629">
        <ele>60</ele>
        <time>2023-11-01T22:54:40Z</time>
      </trkpt>
      <trkpt lat="46.50567" lon="-0.67586">
        <ele>64</ele>
        <time>2023-11-01T23:00:23Z</time>
      </trkpt>
      <trkpt lat="46.50559" lon="-0.67413">
        <ele>60</ele>
        <time>2023-11-01T23:03:03Z</time>
      </trkpt>
      <trkpt lat="46.50527" lon="-0.67402">
        <ele>59</ele>
        <time>2023-11-01T23:03:47Z</time>
      </trkpt>
      <trkpt lat="46.50525" lon="-0.67312">
        <ele>62</ele>
        <time>2023-11-01T23:05:09Z</time>
      </trkpt>
      <trkpt lat="46.50569" lon="-0.67265">
        <ele>66</ele>
        <time>2023-11-01T23:06:22Z</time>
      </trkpt>
      <trkpt lat="46.50542" lon="-0.66998">
        <ele>65</ele>
        <time>2023-11-01T23:10:30Z</time>
      </trkpt>
      <trkpt lat="46.50562" lon="-0.66893">
        <ele>62</ele>
        <time>2023-11-01T23:12:10Z</time>
      </trkpt>
      <trkpt lat="46.50659" lon="-0.66615">
        <ele>58</ele>
        <time>2023-11-01T23:16:56Z</time>
      </trkpt>
      <trkpt lat="46.51061" lon="-0.66439">
        <ele>60</ele>
        <time>2023-11-01T23:26:17Z</time>
      </trkpt>
      <trkpt lat="46.51049" lon="-0.66322">
        <ele>57</ele>
        <time>2023-11-01T23:28:05Z</time>
      </trkpt>
      <trkpt lat="46.50974" lon="-0.66247">
        <ele>54</ele>
        <time>2023-11-01T23:30:07Z</time>
      </trkpt>
      <trkpt lat="46.50964" lon="-0.66121">
        <ele>53</ele>
        <time>2023-11-01T23:32:03Z</time>
      </trkpt>
      <trkpt lat="46.50895" lon="-0.65988">
        <ele>52</ele>
        <time>2023-11-01T23:34:36Z</time>
      </trkpt>
      <trkpt lat="46.50872" lon="-0.65883">
        <ele>55</ele>
        <time>2023-11-01T23:36:17Z</time>
      </trkpt>
      <trkpt lat="46.51004" lon="-0.65684">
        <ele>53</ele>
        <time>2023-11-01T23:40:31Z</time>
      </trkpt>
      <trkpt lat="46.51238" lon="-0.65609">
        <ele>58</ele>
        <time>2023-11-01T23:45:51Z</time>
      </trkpt>
      <trkpt lat="46.51583" lon="-0.65576">
        <ele>64</ele>
        <time>2023-11-01T23:53:32Z</time>
      </trkpt>
      <trkpt lat="46.5198" lon="-0.65681">
        <ele>70</ele>
        <time>2023-11-02T00:02:31Z</time>
      </trkpt>
      <trkpt lat="46.52037" lon="-0.6606">
        <ele>71</ele>
        <time>2023-11-02T00:08:27Z</time>
      </trkpt>
      <trkpt lat="46.52233" lon="-0.66384">
        <ele>70</ele>
        <time>2023-11-02T00:15:03Z</time>
      </trkpt>
      <trkpt lat="46.52348" lon="-0.6667">
        <ele>65</ele>
        <time>2023-11-02T00:20:07Z</time>
      </trkpt>
      <trkpt lat="46.52449" lon="-0.66861">
        <ele>71</ele>
        <time>2023-11-02T00:23:49Z</time>
      </trkpt>
      <trkpt lat="46.52454" lon="-0.66998">
        <ele>69</ele>
        <time>2023-11-02T00:25:55Z</time>
      </trkpt>
      <trkpt lat="46.52546" lon="-0.6702">
        <ele>72</ele>
        <time>2023-11-02T00:27:59Z</time>
      </trkpt>
      <trkpt lat="46.52608" lon="-0.67355">
        <ele>73</ele>
        <time>2023-11-02T00:33:18Z</time>
      </trkpt>
      <trkpt lat="46.52904" lon="-0.67579">
        <ele>78</ele>
        <time>2023-11-02T00:40:43Z</time>
      </trkpt>
      <trkpt lat="46.52854" lon="-0.68229">
        <ele>82</ele>
        <time>2023-11-02T00:50:43Z</time>
      </trkpt>
    </trkseg>
  </trk>
  <trk>
    <name><![CDATA[FoussaisP_SudEst_20.5km-8986940]]></name>
    <extensions>
      <line xmlns="http://www.topografix.com/GPX/gpx_style/0/2">
        <color>00FF00</color>
        <width>4</width>
      </line>
    </extensions>
    <trkseg>
      <trkpt lat="46.52973" lon="-0.68236">
        <ele>84</ele>
        <time>2023-11-01T17:32:37Z</time>
      </trkpt>
      <trkpt lat="46.53066" lon="-0.68197">
        <ele>82</ele>
        <time>2023-11-01T17:34:46Z</time>
      </trkpt>
      <trkpt lat="46.53098" lon="-0.6831">
        <ele>85</ele>
        <time>2023-11-01T17:36:38Z</time>
      </trkpt>
      <trkpt lat="46.53129" lon="-0.68294">
        <ele>85</ele>
        <time>2023-11-01T17:37:22Z</time>
      </trkpt>
      <trkpt lat="46.53157" lon="-0.68414">
        <ele>85</ele>
        <time>2023-11-01T17:39:19Z</time>
      </trkpt>
      <trkpt lat="46.53287" lon="-0.68775">
        <ele>96</ele>
        <time>2023-11-01T17:45:33Z</time>
      </trkpt>
      <trkpt lat="46.53063" lon="-0.68916">
        <ele>94</ele>
        <time>2023-11-01T17:50:58Z</time>
      </trkpt>
      <trkpt lat="46.5308" lon="-0.69089">
        <ele>96</ele>
        <time>2023-11-01T17:53:39Z</time>
      </trkpt>
      <trkpt lat="46.52929" lon="-0.69104">
        <ele>92</ele>
        <time>2023-11-01T17:57:01Z</time>
      </trkpt>
      <trkpt lat="46.52971" lon="-0.69293">
        <ele>91</ele>
        <time>2023-11-01T18:00:03Z</time>
      </trkpt>
      <trkpt lat="46.52947" lon="-0.69513">
        <ele>91</ele>
        <time>2023-11-01T18:03:28Z</time>
      </trkpt>
      <trkpt lat="46.52877" lon="-0.69681">
        <ele>90</ele>
        <time>2023-11-01T18:06:28Z</time>
      </trkpt>
      <trkpt lat="46.52968" lon="-0.69707">
        <ele>91</ele>
        <time>2023-11-01T18:08:32Z</time>
      </trkpt>
      <trkpt lat="46.52993" lon="-0.69901">
        <ele>87</ele>
        <time>2023-11-01T18:11:33Z</time>
      </trkpt>
      <trkpt lat="46.53084" lon="-0.69941">
        <ele>82</ele>
        <time>2023-11-01T18:13:40Z</time>
      </trkpt>
      <trkpt lat="46.53119" lon="-0.70171">
        <ele>79</ele>
        <time>2023-11-01T18:17:16Z</time>
      </trkpt>
      <trkpt lat="46.52891" lon="-0.70268">
        <ele>87</ele>
        <time>2023-11-01T18:22:33Z</time>
      </trkpt>
      <trkpt lat="46.52929" lon="-0.70416">
        <ele>87</ele>
        <time>2023-11-01T18:24:58Z</time>
      </trkpt>
      <trkpt lat="46.5274" lon="-0.70554">
        <ele>85</ele>
        <time>2023-11-01T18:29:40Z</time>
      </trkpt>
      <trkpt lat="46.5267" lon="-0.70457">
        <ele>88</ele>
        <time>2023-11-01T18:31:49Z</time>
      </trkpt>
      <trkpt lat="46.52568" lon="-0.70702">
        <ele>85</ele>
        <time>2023-11-01T18:36:12Z</time>
      </trkpt>
      <trkpt lat="46.52438" lon="-0.70595">
        <ele>88</ele>
        <time>2023-11-01T18:39:32Z</time>
      </trkpt>
      <trkpt lat="46.52241" lon="-0.706">
        <ele>91</ele>
        <time>2023-11-01T18:43:55Z</time>
      </trkpt>
      <trkpt lat="46.52009" lon="-0.70962">
        <ele>93</ele>
        <time>2023-11-01T18:51:29Z</time>
      </trkpt>
      <trkpt lat="46.51781" lon="-0.71723">
        <ele>93</ele>
        <time>2023-11-01T19:04:11Z</time>
      </trkpt>
      <trkpt lat="46.51314" lon="-0.71717">
        <ele>79</ele>
        <time>2023-11-01T19:14:34Z</time>
      </trkpt>
      <trkpt lat="46.51093" lon="-0.71549">
        <ele>91</ele>
        <time>2023-11-01T19:20:07Z</time>
      </trkpt>
      <trkpt lat="46.50935" lon="-0.71661">
        <ele>98</ele>
        <time>2023-11-01T19:24:02Z</time>
      </trkpt>
      <trkpt lat="46.50752" lon="-0.71478">
        <ele>100</ele>
        <time>2023-11-01T19:28:58Z</time>
      </trkpt>
      <trkpt lat="46.50573" lon="-0.71462">
        <ele>104</ele>
        <time>2023-11-01T19:32:57Z</time>
      </trkpt>
      <trkpt lat="46.50316" lon="-0.71049">
        <ele>104</ele>
        <time>2023-11-01T19:41:29Z</time>
      </trkpt>
      <trkpt lat="46.5013" lon="-0.70161">
        <ele>94</ele>
        <time>2023-11-01T19:55:41Z</time>
      </trkpt>
      <trkpt lat="46.50021" lon="-0.69492">
        <ele>79</ele>
        <time>2023-11-01T20:06:13Z</time>
      </trkpt>
      <trkpt lat="46.50113" lon="-0.69293">
        <ele>71</ele>
        <time>2023-11-01T20:09:53Z</time>
      </trkpt>
      <trkpt lat="46.50229" lon="-0.69191">
        <ele>71</ele>
        <time>2023-11-01T20:12:54Z</time>
      </trkpt>
      <trkpt lat="46.50074" lon="-0.68814">
        <ele>62</ele>
        <time>2023-11-01T20:19:37Z</time>
      </trkpt>
      <trkpt lat="46.50021" lon="-0.68717">
        <ele>56</ele>
        <time>2023-11-01T20:21:31Z</time>
      </trkpt>
      <trkpt lat="46.50067" lon="-0.68635">
        <ele>55</ele>
        <time>2023-11-01T20:23:08Z</time>
      </trkpt>
      <trkpt lat="46.50137" lon="-0.6864">
        <ele>60</ele>
        <time>2023-11-01T20:24:42Z</time>
      </trkpt>
      <trkpt lat="46.50201" lon="-0.68426">
        <ele>62</ele>
        <time>2023-11-01T20:28:16Z</time>
      </trkpt>
      <trkpt lat="46.5019" lon="-0.68334">
        <ele>61</ele>
        <time>2023-11-01T20:29:42Z</time>
      </trkpt>
      <trkpt lat="46.50236" lon="-0.68247">
        <ele>61</ele>
        <time>2023-11-01T20:31:23Z</time>
      </trkpt>
      <trkpt lat="46.50253" lon="-0.68033">
        <ele>61</ele>
        <time>2023-11-01T20:34:41Z</time>
      </trkpt>
      <trkpt lat="46.50165" lon="-0.67813">
        <ele>58</ele>
        <time>2023-11-01T20:38:34Z</time>
      </trkpt>
      <trkpt lat="46.50292" lon="-0.67624">
        <ele>59</ele>
        <time>2023-11-01T20:42:37Z</time>
      </trkpt>
      <trkpt lat="46.50559" lon="-0.67589">
        <ele>64</ele>
        <time>2023-11-01T20:48:35Z</time>
      </trkpt>
      <trkpt lat="46.50562" lon="-0.67425">
        <ele>60</ele>
        <time>2023-11-01T20:51:05Z</time>
      </trkpt>
      <trkpt lat="46.50517" lon="-0.6739">
        <ele>59</ele>
        <time>2023-11-01T20:52:14Z</time>
      </trkpt>
      <trkpt lat="46.50524" lon="-0.67298">
        <ele>63</ele>
        <time>2023-11-01T20:53:39Z</time>
      </trkpt>
      <trkpt lat="46.50569" lon="-0.67221">
        <ele>68</ele>
        <time>2023-11-01T20:55:11Z</time>
      </trkpt>
      <trkpt lat="46.50538" lon="-0.67002">
        <ele>65</ele>
        <time>2023-11-01T20:58:37Z</time>
      </trkpt>
      <trkpt lat="46.50654" lon="-0.66619">
        <ele>58</ele>
        <time>2023-11-01T21:05:01Z</time>
      </trkpt>
      <trkpt lat="46.51065" lon="-0.66435">
        <ele>60</ele>
        <time>2023-11-01T21:14:35Z</time>
      </trkpt>
      <trkpt lat="46.5097" lon="-0.66252">
        <ele>54</ele>
        <time>2023-11-01T21:18:05Z</time>
      </trkpt>
      <trkpt lat="46.50966" lon="-0.66114">
        <ele>53</ele>
        <time>2023-11-01T21:20:12Z</time>
      </trkpt>
      <trkpt lat="46.50885" lon="-0.65966">
        <ele>53</ele>
        <time>2023-11-01T21:23:06Z</time>
      </trkpt>
      <trkpt lat="46.50882" lon="-0.65828">
        <ele>55</ele>
        <time>2023-11-01T21:25:13Z</time>
      </trkpt>
      <trkpt lat="46.51022" lon="-0.6566">
        <ele>53</ele>
        <time>2023-11-01T21:29:15Z</time>
      </trkpt>
      <trkpt lat="46.51156" lon="-0.65593">
        <ele>55</ele>
        <time>2023-11-01T21:32:24Z</time>
      </trkpt>
      <trkpt lat="46.51686" lon="-0.65578">
        <ele>67</ele>
        <time>2023-11-01T21:44:12Z</time>
      </trkpt>
      <trkpt lat="46.51971" lon="-0.65675">
        <ele>70</ele>
        <time>2023-11-01T21:50:42Z</time>
      </trkpt>
      <trkpt lat="46.52044" lon="-0.66068">
        <ele>71</ele>
        <time>2023-11-01T21:56:56Z</time>
      </trkpt>
      <trkpt lat="46.52238" lon="-0.66374">
        <ele>70</ele>
        <time>2023-11-01T22:03:18Z</time>
      </trkpt>
      <trkpt lat="46.52448" lon="-0.66859">
        <ele>71</ele>
        <time>2023-11-01T22:12:04Z</time>
      </trkpt>
      <trkpt lat="46.52459" lon="-0.66992">
        <ele>70</ele>
        <time>2023-11-01T22:14:07Z</time>
      </trkpt>
      <trkpt lat="46.5255" lon="-0.67026">
        <ele>72</ele>
        <time>2023-11-01T22:16:13Z</time>
      </trkpt>
      <trkpt lat="46.52754" lon="-0.66801">
        <ele>79</ele>
        <time>2023-11-01T22:21:54Z</time>
      </trkpt>
      <trkpt lat="46.52828" lon="-0.67066">
        <ele>80</ele>
        <time>2023-11-01T22:26:17Z</time>
      </trkpt>
      <trkpt lat="46.53287" lon="-0.67158">
        <ele>90</ele>
        <time>2023-11-01T22:36:35Z</time>
      </trkpt>
      <trkpt lat="46.53298" lon="-0.6676">
        <ele>84</ele>
        <time>2023-11-01T22:42:41Z</time>
      </trkpt>
      <trkpt lat="46.53596" lon="-0.66759">
        <ele>87</ele>
        <time>2023-11-01T22:49:19Z</time>
      </trkpt>
      <trkpt lat="46.53684" lon="-0.66781">
        <ele>89</ele>
        <time>2023-11-01T22:51:18Z</time>
      </trkpt>
      <trkpt lat="46.53767" lon="-0.66695">
        <ele>87</ele>
        <time>2023-11-01T22:53:34Z</time>
      </trkpt>
      <trkpt lat="46.53855" lon="-0.66772">
        <ele>90</ele>
        <time>2023-11-01T22:55:51Z</time>
      </trkpt>
      <trkpt lat="46.54006" lon="-0.66708">
        <ele>88</ele>
        <time>2023-11-01T22:59:21Z</time>
      </trkpt>
      <trkpt lat="46.54319" lon="-0.66785">
        <ele>87</ele>
        <time>2023-11-01T23:06:24Z</time>
      </trkpt>
      <trkpt lat="46.54517" lon="-0.66673">
        <ele>99</ele>
        <time>2023-11-01T23:11:08Z</time>
      </trkpt>
      <trkpt lat="46.54859" lon="-0.67373">
        <ele>107</ele>
        <time>2023-11-01T23:24:16Z</time>
      </trkpt>
      <trkpt lat="46.54747" lon="-0.67502">
        <ele>105</ele>
        <time>2023-11-01T23:27:27Z</time>
      </trkpt>
      <trkpt lat="46.54514" lon="-0.67536">
        <ele>103</ele>
        <time>2023-11-01T23:32:39Z</time>
      </trkpt>
      <trkpt lat="46.53909" lon="-0.67583">
        <ele>100</ele>
        <time>2023-11-01T23:46:08Z</time>
      </trkpt>
      <trkpt lat="46.53717" lon="-0.67231">
        <ele>92</ele>
        <time>2023-11-01T23:53:00Z</time>
      </trkpt>
      <trkpt lat="46.53531" lon="-0.6739">
        <ele>88</ele>
        <time>2023-11-01T23:57:48Z</time>
      </trkpt>
      <trkpt lat="46.53339" lon="-0.67446">
        <ele>87</ele>
        <time>2023-11-02T00:02:09Z</time>
      </trkpt>
      <trkpt lat="46.5338" lon="-0.67708">
        <ele>92</ele>
        <time>2023-11-02T00:06:16Z</time>
      </trkpt>
      <trkpt lat="46.532" lon="-0.67829">
        <ele>83</ele>
        <time>2023-11-02T00:10:41Z</time>
      </trkpt>
      <trkpt lat="46.5314" lon="-0.68155">
        <ele>83</ele>
        <time>2023-11-02T00:15:50Z</time>
      </trkpt>
      <trkpt lat="46.53144" lon="-0.68293">
        <ele>85</ele>
        <time>2023-11-02T00:17:57Z</time>
      </trkpt>
      <trkpt lat="46.53094" lon="-0.68311">
        <ele>85</ele>
        <time>2023-11-02T00:19:06Z</time>
      </trkpt>
      <trkpt lat="46.5308" lon="-0.68203">
        <ele>82</ele>
        <time>2023-11-02T00:20:47Z</time>
      </trkpt>
      <trkpt lat="46.52977" lon="-0.68208">
        <ele>83</ele>
        <time>2023-11-02T00:23:04Z</time>
      </trkpt>
    </trkseg>
  </trk>
  <trk>
    <name><![CDATA[FoussaisP_OuestSud_18.7km-8986962]]></name>
    <extensions>
      <line xmlns="http://www.topografix.com/GPX/gpx_style/0/2">
        <color>FF0000</color>
        <width>4</width>
      </line>
    </extensions>
    <trkseg>
      <trkpt lat="46.52974" lon="-0.68235">
        <ele>84</ele>
        <time>2023-11-01T17:32:21Z</time>
      </trkpt>
      <trkpt lat="46.53067" lon="-0.68197">
        <ele>82</ele>
        <time>2023-11-01T17:34:30Z</time>
      </trkpt>
      <trkpt lat="46.53098" lon="-0.68311">
        <ele>85</ele>
        <time>2023-11-01T17:36:22Z</time>
      </trkpt>
      <trkpt lat="46.5313" lon="-0.68297">
        <ele>85</ele>
        <time>2023-11-01T17:37:07Z</time>
      </trkpt>
      <trkpt lat="46.53288" lon="-0.68778">
        <ele>96</ele>
        <time>2023-11-01T17:45:16Z</time>
      </trkpt>
      <trkpt lat="46.53232" lon="-0.68834">
        <ele>96</ele>
        <time>2023-11-01T17:46:47Z</time>
      </trkpt>
      <trkpt lat="46.53254" lon="-0.68921">
        <ele>98</ele>
        <time>2023-11-01T17:48:12Z</time>
      </trkpt>
      <trkpt lat="46.5327" lon="-0.69145">
        <ele>93</ele>
        <time>2023-11-01T17:51:39Z</time>
      </trkpt>
      <trkpt lat="46.53301" lon="-0.69186">
        <ele>92</ele>
        <time>2023-11-01T17:52:35Z</time>
      </trkpt>
      <trkpt lat="46.5344" lon="-0.69136">
        <ele>91</ele>
        <time>2023-11-01T17:55:46Z</time>
      </trkpt>
      <trkpt lat="46.53566" lon="-0.6937">
        <ele>88</ele>
        <time>2023-11-01T18:00:19Z</time>
      </trkpt>
      <trkpt lat="46.53634" lon="-0.69383">
        <ele>90</ele>
        <time>2023-11-01T18:01:50Z</time>
      </trkpt>
      <trkpt lat="46.53734" lon="-0.69803">
        <ele>87</ele>
        <time>2023-11-01T18:08:38Z</time>
      </trkpt>
      <trkpt lat="46.53844" lon="-0.697">
        <ele>86</ele>
        <time>2023-11-01T18:11:33Z</time>
      </trkpt>
      <trkpt lat="46.53932" lon="-0.69876">
        <ele>81</ele>
        <time>2023-11-01T18:14:53Z</time>
      </trkpt>
      <trkpt lat="46.53979" lon="-0.6982">
        <ele>82</ele>
        <time>2023-11-01T18:16:14Z</time>
      </trkpt>
      <trkpt lat="46.54189" lon="-0.69979">
        <ele>89</ele>
        <time>2023-11-01T18:21:30Z</time>
      </trkpt>
      <trkpt lat="46.5431" lon="-0.69945">
        <ele>91</ele>
        <time>2023-11-01T18:24:14Z</time>
      </trkpt>
      <trkpt lat="46.54354" lon="-0.70026">
        <ele>93</ele>
        <time>2023-11-01T18:25:49Z</time>
      </trkpt>
      <trkpt lat="46.54419" lon="-0.70056">
        <ele>90</ele>
        <time>2023-11-01T18:27:20Z</time>
      </trkpt>
      <trkpt lat="46.54437" lon="-0.70147">
        <ele>90</ele>
        <time>2023-11-01T18:28:47Z</time>
      </trkpt>
      <trkpt lat="46.54564" lon="-0.70078">
        <ele>90</ele>
        <time>2023-11-01T18:31:48Z</time>
      </trkpt>
      <trkpt lat="46.5483" lon="-0.69782">
        <ele>96</ele>
        <time>2023-11-01T18:39:15Z</time>
      </trkpt>
      <trkpt lat="46.54977" lon="-0.69443">
        <ele>101</ele>
        <time>2023-11-01T18:45:22Z</time>
      </trkpt>
      <trkpt lat="46.5516" lon="-0.69464">
        <ele>102</ele>
        <time>2023-11-01T18:49:27Z</time>
      </trkpt>
      <trkpt lat="46.55299" lon="-0.69546">
        <ele>104</ele>
        <time>2023-11-01T18:52:48Z</time>
      </trkpt>
      <trkpt lat="46.55361" lon="-0.69314">
        <ele>106</ele>
        <time>2023-11-01T18:56:36Z</time>
      </trkpt>
      <trkpt lat="46.55346" lon="-0.69241">
        <ele>106</ele>
        <time>2023-11-01T18:57:46Z</time>
      </trkpt>
      <trkpt lat="46.55378" lon="-0.69134">
        <ele>107</ele>
        <time>2023-11-01T18:59:33Z</time>
      </trkpt>
      <trkpt lat="46.55561" lon="-0.68941">
        <ele>109</ele>
        <time>2023-11-01T19:04:35Z</time>
      </trkpt>
      <trkpt lat="46.55682" lon="-0.69014">
        <ele>106</ele>
        <time>2023-11-01T19:07:29Z</time>
      </trkpt>
      <trkpt lat="46.55662" lon="-0.69284">
        <ele>100</ele>
        <time>2023-11-01T19:11:39Z</time>
      </trkpt>
      <trkpt lat="46.55712" lon="-0.69559">
        <ele>113</ele>
        <time>2023-11-01T19:16:00Z</time>
      </trkpt>
      <trkpt lat="46.55647" lon="-0.69627">
        <ele>109</ele>
        <time>2023-11-01T19:17:47Z</time>
      </trkpt>
      <trkpt lat="46.55558" lon="-0.70275">
        <ele>104</ele>
        <time>2023-11-01T19:27:53Z</time>
      </trkpt>
      <trkpt lat="46.55496" lon="-0.70516">
        <ele>104</ele>
        <time>2023-11-01T19:31:49Z</time>
      </trkpt>
      <trkpt lat="46.55263" lon="-0.7076">
        <ele>95</ele>
        <time>2023-11-01T19:38:12Z</time>
      </trkpt>
      <trkpt lat="46.5519" lon="-0.70692">
        <ele>93</ele>
        <time>2023-11-01T19:40:08Z</time>
      </trkpt>
      <trkpt lat="46.55136" lon="-0.7073">
        <ele>90</ele>
        <time>2023-11-01T19:41:28Z</time>
      </trkpt>
      <trkpt lat="46.55107" lon="-0.70692">
        <ele>92</ele>
        <time>2023-11-01T19:42:20Z</time>
      </trkpt>
      <trkpt lat="46.55059" lon="-0.70809">
        <ele>89</ele>
        <time>2023-11-01T19:44:25Z</time>
      </trkpt>
      <trkpt lat="46.54995" lon="-0.70884">
        <ele>87</ele>
        <time>2023-11-01T19:46:15Z</time>
      </trkpt>
      <trkpt lat="46.54929" lon="-0.70882">
        <ele>88</ele>
        <time>2023-11-01T19:47:43Z</time>
      </trkpt>
      <trkpt lat="46.5485" lon="-0.70896">
        <ele>89</ele>
        <time>2023-11-01T19:49:29Z</time>
      </trkpt>
      <trkpt lat="46.54618" lon="-0.70968">
        <ele>91</ele>
        <time>2023-11-01T19:54:46Z</time>
      </trkpt>
      <trkpt lat="46.54573" lon="-0.71035">
        <ele>90</ele>
        <time>2023-11-01T19:56:12Z</time>
      </trkpt>
      <trkpt lat="46.54475" lon="-0.70876">
        <ele>92</ele>
        <time>2023-11-01T19:59:28Z</time>
      </trkpt>
      <trkpt lat="46.54419" lon="-0.70923">
        <ele>91</ele>
        <time>2023-11-01T20:00:54Z</time>
      </trkpt>
      <trkpt lat="46.54269" lon="-0.70541">
        <ele>92</ele>
        <time>2023-11-01T20:07:38Z</time>
      </trkpt>
      <trkpt lat="46.53926" lon="-0.70571">
        <ele>88</ele>
        <time>2023-11-01T20:15:16Z</time>
      </trkpt>
      <trkpt lat="46.5374" lon="-0.70722">
        <ele>84</ele>
        <time>2023-11-01T20:20:00Z</time>
      </trkpt>
      <trkpt lat="46.53667" lon="-0.70765">
        <ele>80</ele>
        <time>2023-11-01T20:21:46Z</time>
      </trkpt>
      <trkpt lat="46.53596" lon="-0.70696">
        <ele>81</ele>
        <time>2023-11-01T20:23:39Z</time>
      </trkpt>
      <trkpt lat="46.5354" lon="-0.70606">
        <ele>81</ele>
        <time>2023-11-01T20:25:31Z</time>
      </trkpt>
      <trkpt lat="46.53324" lon="-0.70464">
        <ele>73</ele>
        <time>2023-11-01T20:30:47Z</time>
      </trkpt>
      <trkpt lat="46.5328" lon="-0.70262">
        <ele>75</ele>
        <time>2023-11-01T20:34:02Z</time>
      </trkpt>
      <trkpt lat="46.53176" lon="-0.70232">
        <ele>76</ele>
        <time>2023-11-01T20:36:23Z</time>
      </trkpt>
      <trkpt lat="46.53117" lon="-0.70155">
        <ele>79</ele>
        <time>2023-11-01T20:38:09Z</time>
      </trkpt>
      <trkpt lat="46.52899" lon="-0.70267">
        <ele>87</ele>
        <time>2023-11-01T20:43:18Z</time>
      </trkpt>
      <trkpt lat="46.52925" lon="-0.70426">
        <ele>87</ele>
        <time>2023-11-01T20:45:48Z</time>
      </trkpt>
      <trkpt lat="46.52745" lon="-0.7055">
        <ele>85</ele>
        <time>2023-11-01T20:50:13Z</time>
      </trkpt>
      <trkpt lat="46.5266" lon="-0.70447">
        <ele>88</ele>
        <time>2023-11-01T20:52:41Z</time>
      </trkpt>
      <trkpt lat="46.52568" lon="-0.70709">
        <ele>85</ele>
        <time>2023-11-01T20:57:11Z</time>
      </trkpt>
      <trkpt lat="46.52426" lon="-0.70584">
        <ele>88</ele>
        <time>2023-11-01T21:00:53Z</time>
      </trkpt>
      <trkpt lat="46.52246" lon="-0.70601">
        <ele>91</ele>
        <time>2023-11-01T21:04:53Z</time>
      </trkpt>
      <trkpt lat="46.52037" lon="-0.70909">
        <ele>94</ele>
        <time>2023-11-01T21:11:31Z</time>
      </trkpt>
      <trkpt lat="46.51981" lon="-0.71138">
        <ele>94</ele>
        <time>2023-11-01T21:15:14Z</time>
      </trkpt>
      <trkpt lat="46.51783" lon="-0.71717">
        <ele>93</ele>
        <time>2023-11-01T21:25:08Z</time>
      </trkpt>
      <trkpt lat="46.51567" lon="-0.71756">
        <ele>85</ele>
        <time>2023-11-01T21:29:58Z</time>
      </trkpt>
      <trkpt lat="46.51319" lon="-0.71709">
        <ele>78</ele>
        <time>2023-11-01T21:35:32Z</time>
      </trkpt>
      <trkpt lat="46.51074" lon="-0.71558">
        <ele>92</ele>
        <time>2023-11-01T21:41:27Z</time>
      </trkpt>
      <trkpt lat="46.50956" lon="-0.7167">
        <ele>98</ele>
        <time>2023-11-01T21:44:35Z</time>
      </trkpt>
      <trkpt lat="46.50858" lon="-0.71631">
        <ele>99</ele>
        <time>2023-11-01T21:46:51Z</time>
      </trkpt>
      <trkpt lat="46.50746" lon="-0.7149">
        <ele>100</ele>
        <time>2023-11-01T21:50:08Z</time>
      </trkpt>
      <trkpt lat="46.50592" lon="-0.71468">
        <ele>104</ele>
        <time>2023-11-01T21:53:35Z</time>
      </trkpt>
      <trkpt lat="46.50477" lon="-0.71352">
        <ele>102</ele>
        <time>2023-11-01T21:56:42Z</time>
      </trkpt>
      <trkpt lat="46.5033" lon="-0.71039">
        <ele>105</ele>
        <time>2023-11-01T22:02:30Z</time>
      </trkpt>
      <trkpt lat="46.50143" lon="-0.70245">
        <ele>98</ele>
        <time>2023-11-01T22:15:21Z</time>
      </trkpt>
      <trkpt lat="46.50019" lon="-0.69484">
        <ele>79</ele>
        <time>2023-11-01T22:27:19Z</time>
      </trkpt>
      <trkpt lat="46.50108" lon="-0.69288">
        <ele>71</ele>
        <time>2023-11-01T22:30:55Z</time>
      </trkpt>
      <trkpt lat="46.50353" lon="-0.69125">
        <ele>68</ele>
        <time>2023-11-01T22:36:54Z</time>
      </trkpt>
      <trkpt lat="46.50669" lon="-0.69112">
        <ele>81</ele>
        <time>2023-11-01T22:43:56Z</time>
      </trkpt>
      <trkpt lat="46.5121" lon="-0.69035">
        <ele>88</ele>
        <time>2023-11-01T22:56:01Z</time>
      </trkpt>
      <trkpt lat="46.5149" lon="-0.69065">
        <ele>82</ele>
        <time>2023-11-01T23:02:16Z</time>
      </trkpt>
      <trkpt lat="46.5152" lon="-0.69258">
        <ele>83</ele>
        <time>2023-11-01T23:05:18Z</time>
      </trkpt>
      <trkpt lat="46.52066" lon="-0.68842">
        <ele>87</ele>
        <time>2023-11-01T23:19:00Z</time>
      </trkpt>
      <trkpt lat="46.52394" lon="-0.68593">
        <ele>88</ele>
        <time>2023-11-01T23:27:14Z</time>
      </trkpt>
      <trkpt lat="46.52415" lon="-0.68511">
        <ele>87</ele>
        <time>2023-11-01T23:28:35Z</time>
      </trkpt>
      <trkpt lat="46.52639" lon="-0.68494">
        <ele>86</ele>
        <time>2023-11-01T23:33:34Z</time>
      </trkpt>
      <trkpt lat="46.52618" lon="-0.68293">
        <ele>84</ele>
        <time>2023-11-01T23:36:41Z</time>
      </trkpt>
      <trkpt lat="46.52745" lon="-0.68323">
        <ele>81</ele>
        <time>2023-11-01T23:39:32Z</time>
      </trkpt>
      <trkpt lat="46.52757" lon="-0.68194">
        <ele>80</ele>
        <time>2023-11-01T23:41:32Z</time>
      </trkpt>
      <trkpt lat="46.52955" lon="-0.6819">
        <ele>82</ele>
        <time>2023-11-01T23:45:56Z</time>
      </trkpt>
      <trkpt lat="46.52978" lon="-0.68215">
        <ele>83</ele>
        <time>2023-11-01T23:46:34Z</time>
      </trkpt>
    </trkseg>
  </trk>
  <trk>
    <name><![CDATA[FoussaisPayré_3C_19km-9129062]]></name>
    <extensions>
      <line xmlns="http://www.topografix.com/GPX/gpx_style/0/2">
        <color>00FFFF</color>
        <width>4</width>
      </line>
    </extensions>
    <trkseg>
      <trkpt lat="46.52973" lon="-0.68236">
        <ele>84</ele>
        <time>2023-11-01T17:32:10Z</time>
      </trkpt>
      <trkpt lat="46.53066" lon="-0.68197">
        <ele>82</ele>
        <time>2023-11-01T17:34:19Z</time>
      </trkpt>
      <trkpt lat="46.53098" lon="-0.6831">
        <ele>85</ele>
        <time>2023-11-01T17:36:11Z</time>
      </trkpt>
      <trkpt lat="46.53129" lon="-0.68294">
        <ele>85</ele>
        <time>2023-11-01T17:36:55Z</time>
      </trkpt>
      <trkpt lat="46.53157" lon="-0.68414">
        <ele>85</ele>
        <time>2023-11-01T17:38:52Z</time>
      </trkpt>
      <trkpt lat="46.53287" lon="-0.68775">
        <ele>96</ele>
        <time>2023-11-01T17:45:06Z</time>
      </trkpt>
      <trkpt lat="46.53238" lon="-0.6884">
        <ele>96</ele>
        <time>2023-11-01T17:46:34Z</time>
      </trkpt>
      <trkpt lat="46.53265" lon="-0.69174">
        <ele>93</ele>
        <time>2023-11-01T17:51:43Z</time>
      </trkpt>
      <trkpt lat="46.53431" lon="-0.69144">
        <ele>91</ele>
        <time>2023-11-01T17:55:26Z</time>
      </trkpt>
      <trkpt lat="46.53537" lon="-0.69289">
        <ele>89</ele>
        <time>2023-11-01T17:58:40Z</time>
      </trkpt>
      <trkpt lat="46.5364" lon="-0.69404">
        <ele>91</ele>
        <time>2023-11-01T18:01:34Z</time>
      </trkpt>
      <trkpt lat="46.53733" lon="-0.69825">
        <ele>85</ele>
        <time>2023-11-01T18:08:20Z</time>
      </trkpt>
      <trkpt lat="46.53839" lon="-0.69707">
        <ele>86</ele>
        <time>2023-11-01T18:11:18Z</time>
      </trkpt>
      <trkpt lat="46.53932" lon="-0.69853">
        <ele>81</ele>
        <time>2023-11-01T18:14:20Z</time>
      </trkpt>
      <trkpt lat="46.54188" lon="-0.6997">
        <ele>89</ele>
        <time>2023-11-01T18:20:19Z</time>
      </trkpt>
      <trkpt lat="46.54399" lon="-0.70019">
        <ele>91</ele>
        <time>2023-11-01T18:25:04Z</time>
      </trkpt>
      <trkpt lat="46.54421" lon="-0.70154">
        <ele>90</ele>
        <time>2023-11-01T18:27:11Z</time>
      </trkpt>
      <trkpt lat="46.54205" lon="-0.7019">
        <ele>85</ele>
        <time>2023-11-01T18:32:01Z</time>
      </trkpt>
      <trkpt lat="46.54267" lon="-0.70539">
        <ele>92</ele>
        <time>2023-11-01T18:37:32Z</time>
      </trkpt>
      <trkpt lat="46.53909" lon="-0.70595">
        <ele>88</ele>
        <time>2023-11-01T18:45:32Z</time>
      </trkpt>
      <trkpt lat="46.5367" lon="-0.70772">
        <ele>80</ele>
        <time>2023-11-01T18:51:30Z</time>
      </trkpt>
      <trkpt lat="46.5331" lon="-0.70458">
        <ele>73</ele>
        <time>2023-11-01T19:00:51Z</time>
      </trkpt>
      <trkpt lat="46.5327" lon="-0.70269">
        <ele>75</ele>
        <time>2023-11-01T19:03:52Z</time>
      </trkpt>
      <trkpt lat="46.53119" lon="-0.70171">
        <ele>79</ele>
        <time>2023-11-01T19:07:33Z</time>
      </trkpt>
      <trkpt lat="46.52891" lon="-0.70268">
        <ele>87</ele>
        <time>2023-11-01T19:12:50Z</time>
      </trkpt>
      <trkpt lat="46.52929" lon="-0.70416">
        <ele>87</ele>
        <time>2023-11-01T19:15:15Z</time>
      </trkpt>
      <trkpt lat="46.5274" lon="-0.70554">
        <ele>85</ele>
        <time>2023-11-01T19:19:57Z</time>
      </trkpt>
      <trkpt lat="46.5267" lon="-0.70457">
        <ele>88</ele>
        <time>2023-11-01T19:22:06Z</time>
      </trkpt>
      <trkpt lat="46.52568" lon="-0.70702">
        <ele>85</ele>
        <time>2023-11-01T19:26:29Z</time>
      </trkpt>
      <trkpt lat="46.52438" lon="-0.70595">
        <ele>88</ele>
        <time>2023-11-01T19:29:49Z</time>
      </trkpt>
      <trkpt lat="46.52241" lon="-0.706">
        <ele>91</ele>
        <time>2023-11-01T19:34:11Z</time>
      </trkpt>
      <trkpt lat="46.52009" lon="-0.70962">
        <ele>93</ele>
        <time>2023-11-01T19:41:46Z</time>
      </trkpt>
      <trkpt lat="46.51781" lon="-0.71723">
        <ele>93</ele>
        <time>2023-11-01T19:54:28Z</time>
      </trkpt>
      <trkpt lat="46.51314" lon="-0.71717">
        <ele>79</ele>
        <time>2023-11-01T20:04:51Z</time>
      </trkpt>
      <trkpt lat="46.51093" lon="-0.71549">
        <ele>91</ele>
        <time>2023-11-01T20:10:24Z</time>
      </trkpt>
      <trkpt lat="46.50935" lon="-0.71661">
        <ele>98</ele>
        <time>2023-11-01T20:14:19Z</time>
      </trkpt>
      <trkpt lat="46.50752" lon="-0.71478">
        <ele>100</ele>
        <time>2023-11-01T20:19:15Z</time>
      </trkpt>
      <trkpt lat="46.50573" lon="-0.71462">
        <ele>104</ele>
        <time>2023-11-01T20:23:14Z</time>
      </trkpt>
      <trkpt lat="46.50316" lon="-0.71049">
        <ele>104</ele>
        <time>2023-11-01T20:31:46Z</time>
      </trkpt>
      <trkpt lat="46.5013" lon="-0.70161">
        <ele>94</ele>
        <time>2023-11-01T20:45:58Z</time>
      </trkpt>
      <trkpt lat="46.50021" lon="-0.69492">
        <ele>79</ele>
        <time>2023-11-01T20:56:30Z</time>
      </trkpt>
      <trkpt lat="46.50113" lon="-0.69293">
        <ele>71</ele>
        <time>2023-11-01T21:00:10Z</time>
      </trkpt>
      <trkpt lat="46.50229" lon="-0.69191">
        <ele>71</ele>
        <time>2023-11-01T21:03:11Z</time>
      </trkpt>
      <trkpt lat="46.50074" lon="-0.68814">
        <ele>62</ele>
        <time>2023-11-01T21:09:54Z</time>
      </trkpt>
      <trkpt lat="46.50021" lon="-0.68717">
        <ele>56</ele>
        <time>2023-11-01T21:11:48Z</time>
      </trkpt>
      <trkpt lat="46.50067" lon="-0.68635">
        <ele>55</ele>
        <time>2023-11-01T21:13:25Z</time>
      </trkpt>
      <trkpt lat="46.50137" lon="-0.6864">
        <ele>60</ele>
        <time>2023-11-01T21:14:59Z</time>
      </trkpt>
      <trkpt lat="46.50201" lon="-0.68426">
        <ele>62</ele>
        <time>2023-11-01T21:18:33Z</time>
      </trkpt>
      <trkpt lat="46.5019" lon="-0.68334">
        <ele>61</ele>
        <time>2023-11-01T21:19:59Z</time>
      </trkpt>
      <trkpt lat="46.50236" lon="-0.68247">
        <ele>61</ele>
        <time>2023-11-01T21:21:40Z</time>
      </trkpt>
      <trkpt lat="46.50253" lon="-0.68033">
        <ele>61</ele>
        <time>2023-11-01T21:24:57Z</time>
      </trkpt>
      <trkpt lat="46.50165" lon="-0.67813">
        <ele>58</ele>
        <time>2023-11-01T21:28:51Z</time>
      </trkpt>
      <trkpt lat="46.50292" lon="-0.67624">
        <ele>59</ele>
        <time>2023-11-01T21:32:54Z</time>
      </trkpt>
      <trkpt lat="46.50559" lon="-0.67589">
        <ele>64</ele>
        <time>2023-11-01T21:38:52Z</time>
      </trkpt>
      <trkpt lat="46.50562" lon="-0.67425">
        <ele>60</ele>
        <time>2023-11-01T21:41:22Z</time>
      </trkpt>
      <trkpt lat="46.50517" lon="-0.6739">
        <ele>59</ele>
        <time>2023-11-01T21:42:30Z</time>
      </trkpt>
      <trkpt lat="46.50524" lon="-0.67298">
        <ele>63</ele>
        <time>2023-11-01T21:43:55Z</time>
      </trkpt>
      <trkpt lat="46.50569" lon="-0.67221">
        <ele>68</ele>
        <time>2023-11-01T21:45:28Z</time>
      </trkpt>
      <trkpt lat="46.50538" lon="-0.67002">
        <ele>65</ele>
        <time>2023-11-01T21:48:54Z</time>
      </trkpt>
      <trkpt lat="46.50654" lon="-0.66619">
        <ele>58</ele>
        <time>2023-11-01T21:55:18Z</time>
      </trkpt>
      <trkpt lat="46.51065" lon="-0.66435">
        <ele>60</ele>
        <time>2023-11-01T22:04:52Z</time>
      </trkpt>
      <trkpt lat="46.5097" lon="-0.66252">
        <ele>54</ele>
        <time>2023-11-01T22:08:22Z</time>
      </trkpt>
      <trkpt lat="46.50966" lon="-0.66114">
        <ele>53</ele>
        <time>2023-11-01T22:10:29Z</time>
      </trkpt>
      <trkpt lat="46.50885" lon="-0.65966">
        <ele>53</ele>
        <time>2023-11-01T22:13:23Z</time>
      </trkpt>
      <trkpt lat="46.50882" lon="-0.65828">
        <ele>55</ele>
        <time>2023-11-01T22:15:30Z</time>
      </trkpt>
      <trkpt lat="46.51022" lon="-0.6566">
        <ele>53</ele>
        <time>2023-11-01T22:19:32Z</time>
      </trkpt>
      <trkpt lat="46.51156" lon="-0.65593">
        <ele>55</ele>
        <time>2023-11-01T22:22:41Z</time>
      </trkpt>
      <trkpt lat="46.51686" lon="-0.65578">
        <ele>67</ele>
        <time>2023-11-01T22:34:28Z</time>
      </trkpt>
      <trkpt lat="46.51971" lon="-0.65675">
        <ele>70</ele>
        <time>2023-11-01T22:40:59Z</time>
      </trkpt>
      <trkpt lat="46.52044" lon="-0.66068">
        <ele>71</ele>
        <time>2023-11-01T22:47:13Z</time>
      </trkpt>
      <trkpt lat="46.52238" lon="-0.66374">
        <ele>70</ele>
        <time>2023-11-01T22:53:35Z</time>
      </trkpt>
      <trkpt lat="46.52448" lon="-0.66859">
        <ele>71</ele>
        <time>2023-11-01T23:02:21Z</time>
      </trkpt>
      <trkpt lat="46.52459" lon="-0.66992">
        <ele>70</ele>
        <time>2023-11-01T23:04:24Z</time>
      </trkpt>
      <trkpt lat="46.5255" lon="-0.67026">
        <ele>72</ele>
        <time>2023-11-01T23:06:29Z</time>
      </trkpt>
      <trkpt lat="46.52754" lon="-0.66801">
        <ele>79</ele>
        <time>2023-11-01T23:12:11Z</time>
      </trkpt>
      <trkpt lat="46.52828" lon="-0.67066">
        <ele>80</ele>
        <time>2023-11-01T23:16:34Z</time>
      </trkpt>
      <trkpt lat="46.52912" lon="-0.67521">
        <ele>79</ele>
        <time>2023-11-01T23:23:46Z</time>
      </trkpt>
      <trkpt lat="46.53289" lon="-0.6751">
        <ele>87</ele>
        <time>2023-11-01T23:32:09Z</time>
      </trkpt>
      <trkpt lat="46.53338" lon="-0.6751">
        <ele>88</ele>
        <time>2023-11-01T23:33:15Z</time>
      </trkpt>
      <trkpt lat="46.5338" lon="-0.67708">
        <ele>92</ele>
        <time>2023-11-01T23:36:25Z</time>
      </trkpt>
      <trkpt lat="46.532" lon="-0.67829">
        <ele>83</ele>
        <time>2023-11-01T23:40:50Z</time>
      </trkpt>
      <trkpt lat="46.5314" lon="-0.68155">
        <ele>83</ele>
        <time>2023-11-01T23:46:00Z</time>
      </trkpt>
      <trkpt lat="46.53144" lon="-0.68293">
        <ele>85</ele>
        <time>2023-11-01T23:48:06Z</time>
      </trkpt>
      <trkpt lat="46.53094" lon="-0.68311">
        <ele>85</ele>
        <time>2023-11-01T23:49:15Z</time>
      </trkpt>
      <trkpt lat="46.5308" lon="-0.68203">
        <ele>82</ele>
        <time>2023-11-01T23:50:56Z</time>
      </trkpt>
      <trkpt lat="46.52977" lon="-0.68208">
        <ele>83</ele>
        <time>2023-11-01T23:53:13Z</time>
      </trkpt>
    </trkseg>
  </trk>
  <trk>
    <name><![CDATA[FoussaisP_3CgiteLaRouliere_18.6km-9131846]]></name>
    <extensions>
      <line xmlns="http://www.topografix.com/GPX/gpx_style/0/2">
        <color>FFFF00</color>
        <width>4</width>
      </line>
    </extensions>
    <trkseg>
      <trkpt lat="46.50601" lon="-0.66808">
        <ele>60</ele>
        <time>2023-11-01T17:32:00Z</time>
      </trkpt>
      <trkpt lat="46.50541" lon="-0.6701">
        <ele>66</ele>
        <time>2023-11-01T17:35:22Z</time>
      </trkpt>
      <trkpt lat="46.50566" lon="-0.67227">
        <ele>68</ele>
        <time>2023-11-01T17:38:44Z</time>
      </trkpt>
      <trkpt lat="46.50516" lon="-0.67284">
        <ele>63</ele>
        <time>2023-11-01T17:40:09Z</time>
      </trkpt>
      <trkpt lat="46.50526" lon="-0.67393">
        <ele>59</ele>
        <time>2023-11-01T17:41:50Z</time>
      </trkpt>
      <trkpt lat="46.50566" lon="-0.67443">
        <ele>60</ele>
        <time>2023-11-01T17:43:00Z</time>
      </trkpt>
      <trkpt lat="46.50566" lon="-0.67587">
        <ele>64</ele>
        <time>2023-11-01T17:45:13Z</time>
      </trkpt>
      <trkpt lat="46.50298" lon="-0.67623">
        <ele>59</ele>
        <time>2023-11-01T17:51:12Z</time>
      </trkpt>
      <trkpt lat="46.50174" lon="-0.67811">
        <ele>58</ele>
        <time>2023-11-01T17:55:11Z</time>
      </trkpt>
      <trkpt lat="46.50243" lon="-0.68035">
        <ele>61</ele>
        <time>2023-11-01T17:58:56Z</time>
      </trkpt>
      <trkpt lat="46.50228" lon="-0.68266">
        <ele>61</ele>
        <time>2023-11-01T18:02:30Z</time>
      </trkpt>
      <trkpt lat="46.50184" lon="-0.68331">
        <ele>61</ele>
        <time>2023-11-01T18:03:53Z</time>
      </trkpt>
      <trkpt lat="46.50201" lon="-0.68429">
        <ele>62</ele>
        <time>2023-11-01T18:05:26Z</time>
      </trkpt>
      <trkpt lat="46.50136" lon="-0.6864">
        <ele>60</ele>
        <time>2023-11-01T18:08:58Z</time>
      </trkpt>
      <trkpt lat="46.50068" lon="-0.68635">
        <ele>55</ele>
        <time>2023-11-01T18:10:29Z</time>
      </trkpt>
      <trkpt lat="46.50022" lon="-0.68719">
        <ele>56</ele>
        <time>2023-11-01T18:12:08Z</time>
      </trkpt>
      <trkpt lat="46.50232" lon="-0.69184">
        <ele>71</ele>
        <time>2023-11-01T18:20:39Z</time>
      </trkpt>
      <trkpt lat="46.50111" lon="-0.69293">
        <ele>71</ele>
        <time>2023-11-01T18:23:49Z</time>
      </trkpt>
      <trkpt lat="46.5002" lon="-0.69487">
        <ele>79</ele>
        <time>2023-11-01T18:27:24Z</time>
      </trkpt>
      <trkpt lat="46.50048" lon="-0.69634">
        <ele>81</ele>
        <time>2023-11-01T18:29:44Z</time>
      </trkpt>
      <trkpt lat="46.50072" lon="-0.69888">
        <ele>87</ele>
        <time>2023-11-01T18:33:40Z</time>
      </trkpt>
      <trkpt lat="46.50122" lon="-0.70144">
        <ele>94</ele>
        <time>2023-11-01T18:37:44Z</time>
      </trkpt>
      <trkpt lat="46.50334" lon="-0.71024">
        <ele>105</ele>
        <time>2023-11-01T18:52:01Z</time>
      </trkpt>
      <trkpt lat="46.50491" lon="-0.71379">
        <ele>102</ele>
        <time>2023-11-01T18:58:28Z</time>
      </trkpt>
      <trkpt lat="46.50619" lon="-0.71477">
        <ele>104</ele>
        <time>2023-11-01T19:01:41Z</time>
      </trkpt>
      <trkpt lat="46.50744" lon="-0.71489">
        <ele>100</ele>
        <time>2023-11-01T19:04:29Z</time>
      </trkpt>
      <trkpt lat="46.50857" lon="-0.71635">
        <ele>99</ele>
        <time>2023-11-01T19:07:50Z</time>
      </trkpt>
      <trkpt lat="46.50941" lon="-0.71662">
        <ele>98</ele>
        <time>2023-11-01T19:09:45Z</time>
      </trkpt>
      <trkpt lat="46.5109" lon="-0.7157">
        <ele>92</ele>
        <time>2023-11-01T19:13:21Z</time>
      </trkpt>
      <trkpt lat="46.51327" lon="-0.71723">
        <ele>77</ele>
        <time>2023-11-01T19:19:07Z</time>
      </trkpt>
      <trkpt lat="46.51557" lon="-0.71753">
        <ele>84</ele>
        <time>2023-11-01T19:24:16Z</time>
      </trkpt>
      <trkpt lat="46.51782" lon="-0.71716">
        <ele>93</ele>
        <time>2023-11-01T19:29:18Z</time>
      </trkpt>
      <trkpt lat="46.51994" lon="-0.71102">
        <ele>93</ele>
        <time>2023-11-01T19:39:49Z</time>
      </trkpt>
      <trkpt lat="46.52034" lon="-0.70913">
        <ele>94</ele>
        <time>2023-11-01T19:42:50Z</time>
      </trkpt>
      <trkpt lat="46.52247" lon="-0.70613">
        <ele>91</ele>
        <time>2023-11-01T19:49:26Z</time>
      </trkpt>
      <trkpt lat="46.52432" lon="-0.70602">
        <ele>88</ele>
        <time>2023-11-01T19:53:33Z</time>
      </trkpt>
      <trkpt lat="46.52558" lon="-0.7072">
        <ele>85</ele>
        <time>2023-11-01T19:56:53Z</time>
      </trkpt>
      <trkpt lat="46.52661" lon="-0.7044">
        <ele>89</ele>
        <time>2023-11-01T20:01:45Z</time>
      </trkpt>
      <trkpt lat="46.52739" lon="-0.70559">
        <ele>85</ele>
        <time>2023-11-01T20:04:15Z</time>
      </trkpt>
      <trkpt lat="46.52928" lon="-0.70424">
        <ele>87</ele>
        <time>2023-11-01T20:08:56Z</time>
      </trkpt>
      <trkpt lat="46.52907" lon="-0.7028">
        <ele>87</ele>
        <time>2023-11-01T20:11:12Z</time>
      </trkpt>
      <trkpt lat="46.53116" lon="-0.70162">
        <ele>79</ele>
        <time>2023-11-01T20:16:11Z</time>
      </trkpt>
      <trkpt lat="46.53151" lon="-0.70224">
        <ele>77</ele>
        <time>2023-11-01T20:17:24Z</time>
      </trkpt>
      <trkpt lat="46.53268" lon="-0.70256">
        <ele>75</ele>
        <time>2023-11-01T20:20:03Z</time>
      </trkpt>
      <trkpt lat="46.53327" lon="-0.70485">
        <ele>73</ele>
        <time>2023-11-01T20:23:48Z</time>
      </trkpt>
      <trkpt lat="46.5335" lon="-0.70465">
        <ele>73</ele>
        <time>2023-11-01T20:24:24Z</time>
      </trkpt>
      <trkpt lat="46.53491" lon="-0.70566">
        <ele>80</ele>
        <time>2023-11-01T20:27:53Z</time>
      </trkpt>
      <trkpt lat="46.53663" lon="-0.70772">
        <ele>80</ele>
        <time>2023-11-01T20:32:51Z</time>
      </trkpt>
      <trkpt lat="46.53748" lon="-0.70698">
        <ele>85</ele>
        <time>2023-11-01T20:35:03Z</time>
      </trkpt>
      <trkpt lat="46.53929" lon="-0.70586">
        <ele>88</ele>
        <time>2023-11-01T20:39:25Z</time>
      </trkpt>
      <trkpt lat="46.54026" lon="-0.70595">
        <ele>88</ele>
        <time>2023-11-01T20:41:35Z</time>
      </trkpt>
      <trkpt lat="46.54273" lon="-0.7053">
        <ele>92</ele>
        <time>2023-11-01T20:47:10Z</time>
      </trkpt>
      <trkpt lat="46.54438" lon="-0.70483">
        <ele>95</ele>
        <time>2023-11-01T20:50:55Z</time>
      </trkpt>
      <trkpt lat="46.54371" lon="-0.70177">
        <ele>89</ele>
        <time>2023-11-01T20:55:49Z</time>
      </trkpt>
      <trkpt lat="46.54422" lon="-0.70157">
        <ele>90</ele>
        <time>2023-11-01T20:57:00Z</time>
      </trkpt>
      <trkpt lat="46.54406" lon="-0.70035">
        <ele>91</ele>
        <time>2023-11-01T20:58:54Z</time>
      </trkpt>
      <trkpt lat="46.54335" lon="-0.70027">
        <ele>93</ele>
        <time>2023-11-01T21:00:29Z</time>
      </trkpt>
      <trkpt lat="46.54302" lon="-0.69967">
        <ele>92</ele>
        <time>2023-11-01T21:01:39Z</time>
      </trkpt>
      <trkpt lat="46.54244" lon="-0.69963">
        <ele>91</ele>
        <time>2023-11-01T21:02:57Z</time>
      </trkpt>
      <trkpt lat="46.54192" lon="-0.69989">
        <ele>89</ele>
        <time>2023-11-01T21:04:10Z</time>
      </trkpt>
      <trkpt lat="46.54067" lon="-0.69924">
        <ele>85</ele>
        <time>2023-11-01T21:07:07Z</time>
      </trkpt>
      <trkpt lat="46.53969" lon="-0.69835">
        <ele>82</ele>
        <time>2023-11-01T21:09:41Z</time>
      </trkpt>
      <trkpt lat="46.53921" lon="-0.69878">
        <ele>81</ele>
        <time>2023-11-01T21:10:57Z</time>
      </trkpt>
      <trkpt lat="46.53837" lon="-0.6972">
        <ele>86</ele>
        <time>2023-11-01T21:14:00Z</time>
      </trkpt>
      <trkpt lat="46.53744" lon="-0.69815">
        <ele>86</ele>
        <time>2023-11-01T21:16:32Z</time>
      </trkpt>
      <trkpt lat="46.53701" lon="-0.69752">
        <ele>89</ele>
        <time>2023-11-01T21:17:53Z</time>
      </trkpt>
      <trkpt lat="46.53634" lon="-0.69415">
        <ele>90</ele>
        <time>2023-11-01T21:23:15Z</time>
      </trkpt>
      <trkpt lat="46.53558" lon="-0.69356">
        <ele>88</ele>
        <time>2023-11-01T21:25:10Z</time>
      </trkpt>
      <trkpt lat="46.53489" lon="-0.69194">
        <ele>90</ele>
        <time>2023-11-01T21:28:05Z</time>
      </trkpt>
      <trkpt lat="46.53436" lon="-0.69133">
        <ele>91</ele>
        <time>2023-11-01T21:29:35Z</time>
      </trkpt>
      <trkpt lat="46.53324" lon="-0.69185">
        <ele>91</ele>
        <time>2023-11-01T21:32:12Z</time>
      </trkpt>
      <trkpt lat="46.53288" lon="-0.69184">
        <ele>92</ele>
        <time>2023-11-01T21:33:00Z</time>
      </trkpt>
      <trkpt lat="46.53263" lon="-0.6911">
        <ele>94</ele>
        <time>2023-11-01T21:34:16Z</time>
      </trkpt>
      <trkpt lat="46.53253" lon="-0.68914">
        <ele>98</ele>
        <time>2023-11-01T21:37:16Z</time>
      </trkpt>
      <trkpt lat="46.53228" lon="-0.68825">
        <ele>96</ele>
        <time>2023-11-01T21:38:45Z</time>
      </trkpt>
      <trkpt lat="46.5329" lon="-0.68774">
        <ele>96</ele>
        <time>2023-11-01T21:40:20Z</time>
      </trkpt>
      <trkpt lat="46.53131" lon="-0.68293">
        <ele>85</ele>
        <time>2023-11-01T21:48:30Z</time>
      </trkpt>
      <trkpt lat="46.53148" lon="-0.68274">
        <ele>85</ele>
        <time>2023-11-01T21:48:58Z</time>
      </trkpt>
      <trkpt lat="46.53123" lon="-0.68197">
        <ele>83</ele>
        <time>2023-11-01T21:50:16Z</time>
      </trkpt>
      <trkpt lat="46.53154" lon="-0.68136">
        <ele>83</ele>
        <time>2023-11-01T21:51:26Z</time>
      </trkpt>
      <trkpt lat="46.53194" lon="-0.67896">
        <ele>82</ele>
        <time>2023-11-01T21:55:13Z</time>
      </trkpt>
      <trkpt lat="46.53214" lon="-0.67841">
        <ele>84</ele>
        <time>2023-11-01T21:56:10Z</time>
      </trkpt>
      <trkpt lat="46.53381" lon="-0.67697">
        <ele>92</ele>
        <time>2023-11-01T22:00:29Z</time>
      </trkpt>
      <trkpt lat="46.53337" lon="-0.67522">
        <ele>88</ele>
        <time>2023-11-01T22:03:20Z</time>
      </trkpt>
      <trkpt lat="46.53298" lon="-0.67534">
        <ele>88</ele>
        <time>2023-11-01T22:04:13Z</time>
      </trkpt>
      <trkpt lat="46.53177" lon="-0.67506">
        <ele>85</ele>
        <time>2023-11-01T22:06:57Z</time>
      </trkpt>
      <trkpt lat="46.53059" lon="-0.67484">
        <ele>84</ele>
        <time>2023-11-01T22:09:35Z</time>
      </trkpt>
      <trkpt lat="46.52913" lon="-0.67537">
        <ele>78</ele>
        <time>2023-11-01T22:12:56Z</time>
      </trkpt>
      <trkpt lat="46.52888" lon="-0.67369">
        <ele>78</ele>
        <time>2023-11-01T22:15:34Z</time>
      </trkpt>
      <trkpt lat="46.52833" lon="-0.67194">
        <ele>78</ele>
        <time>2023-11-01T22:18:31Z</time>
      </trkpt>
      <trkpt lat="46.52804" lon="-0.66995">
        <ele>82</ele>
        <time>2023-11-01T22:21:37Z</time>
      </trkpt>
      <trkpt lat="46.52753" lon="-0.66813">
        <ele>80</ele>
        <time>2023-11-01T22:24:38Z</time>
      </trkpt>
      <trkpt lat="46.52554" lon="-0.67012">
        <ele>73</ele>
        <time>2023-11-01T22:30:00Z</time>
      </trkpt>
      <trkpt lat="46.52459" lon="-0.66999">
        <ele>70</ele>
        <time>2023-11-01T22:32:08Z</time>
      </trkpt>
      <trkpt lat="46.5245" lon="-0.66867">
        <ele>71</ele>
        <time>2023-11-01T22:34:09Z</time>
      </trkpt>
      <trkpt lat="46.52408" lon="-0.6675">
        <ele>69</ele>
        <time>2023-11-01T22:36:11Z</time>
      </trkpt>
      <trkpt lat="46.52343" lon="-0.66663">
        <ele>64</ele>
        <time>2023-11-01T22:38:08Z</time>
      </trkpt>
      <trkpt lat="46.52261" lon="-0.66471">
        <ele>68</ele>
        <time>2023-11-01T22:41:36Z</time>
      </trkpt>
      <trkpt lat="46.52231" lon="-0.66373">
        <ele>70</ele>
        <time>2023-11-01T22:43:14Z</time>
      </trkpt>
      <trkpt lat="46.52112" lon="-0.66211">
        <ele>71</ele>
        <time>2023-11-01T22:46:52Z</time>
      </trkpt>
      <trkpt lat="46.52043" lon="-0.66052">
        <ele>72</ele>
        <time>2023-11-01T22:49:45Z</time>
      </trkpt>
      <trkpt lat="46.51981" lon="-0.6568">
        <ele>70</ele>
        <time>2023-11-01T22:55:36Z</time>
      </trkpt>
      <trkpt lat="46.51889" lon="-0.65667">
        <ele>69</ele>
        <time>2023-11-01T22:57:39Z</time>
      </trkpt>
      <trkpt lat="46.51748" lon="-0.65615">
        <ele>68</ele>
        <time>2023-11-01T23:00:54Z</time>
      </trkpt>
      <trkpt lat="46.51674" lon="-0.65584">
        <ele>67</ele>
        <time>2023-11-01T23:02:36Z</time>
      </trkpt>
      <trkpt lat="46.51406" lon="-0.65579">
        <ele>63</ele>
        <time>2023-11-01T23:08:34Z</time>
      </trkpt>
      <trkpt lat="46.51237" lon="-0.65604">
        <ele>58</ele>
        <time>2023-11-01T23:12:21Z</time>
      </trkpt>
      <trkpt lat="46.51158" lon="-0.65596">
        <ele>55</ele>
        <time>2023-11-01T23:14:06Z</time>
      </trkpt>
      <trkpt lat="46.51022" lon="-0.65661">
        <ele>53</ele>
        <time>2023-11-01T23:17:17Z</time>
      </trkpt>
      <trkpt lat="46.50903" lon="-0.6582">
        <ele>55</ele>
        <time>2023-11-01T23:20:53Z</time>
      </trkpt>
      <trkpt lat="46.50877" lon="-0.65917">
        <ele>54</ele>
        <time>2023-11-01T23:22:29Z</time>
      </trkpt>
      <trkpt lat="46.50893" lon="-0.65996">
        <ele>52</ele>
        <time>2023-11-01T23:23:44Z</time>
      </trkpt>
      <trkpt lat="46.50959" lon="-0.66125">
        <ele>53</ele>
        <time>2023-11-01T23:26:12Z</time>
      </trkpt>
      <trkpt lat="46.50962" lon="-0.66193">
        <ele>54</ele>
        <time>2023-11-01T23:27:15Z</time>
      </trkpt>
      <trkpt lat="46.5103" lon="-0.6631">
        <ele>57</ele>
        <time>2023-11-01T23:29:35Z</time>
      </trkpt>
      <trkpt lat="46.51059" lon="-0.66431">
        <ele>60</ele>
        <time>2023-11-01T23:31:33Z</time>
      </trkpt>
      <trkpt lat="46.5066" lon="-0.66629">
        <ele>58</ele>
        <time>2023-11-01T23:40:56Z</time>
      </trkpt>
      <trkpt lat="46.50593" lon="-0.66801">
        <ele>60</ele>
        <time>2023-11-01T23:43:57Z</time>
      </trkpt>
    </trkseg>
  </trk>
</gpx>